createdAt,value
2023-04-28T00:00:44.724Z,1.33
2023-04-28T00:03:13.480Z,1.73
2023-04-28T00:05:42.203Z,1.42
2023-04-28T00:08:10.632Z,1.58
2023-04-28T00:10:38.933Z,1.40
2023-04-28T00:13:07.307Z,1.73
2023-04-28T00:15:36.119Z,1.60
2023-04-28T00:18:04.440Z,1.42
2023-04-28T00:20:32.935Z,1.48
2023-04-28T00:23:01.315Z,1.50
2023-04-28T00:25:29.593Z,1.35
2023-04-28T00:27:57.904Z,1.48
2023-04-28T00:30:26.192Z,1.60
2023-04-28T00:32:54.633Z,1.35
2023-04-28T00:35:23.147Z,1.33
2023-04-28T00:37:51.646Z,1.33
2023-04-28T00:40:19.924Z,1.50
2023-04-28T00:42:48.636Z,1.55
2023-04-28T00:45:17.179Z,1.60
2023-04-28T00:47:46.083Z,1.38
2023-04-28T00:50:14.814Z,1.88
2023-04-28T00:52:44.658Z,1.80
2023-04-28T00:55:16.287Z,1.80
2023-04-28T00:57:44.671Z,2.05
2023-04-28T01:00:13.604Z,1.63
2023-04-28T01:02:42.072Z,1.63
2023-04-28T01:05:11.290Z,1.70
2023-04-28T01:07:39.955Z,1.80
2023-04-28T01:10:09.012Z,1.58
2023-04-28T01:12:37.726Z,1.75
2023-04-28T01:15:06.585Z,2.03
2023-04-28T01:17:35.221Z,1.70
2023-04-28T01:20:03.775Z,1.83
2023-04-28T01:22:32.573Z,1.83
2023-04-28T01:25:01.209Z,2.30
2023-04-28T01:27:29.585Z,2.05
2023-04-28T01:29:59.386Z,1.92
2023-04-28T01:32:27.684Z,1.90
2023-04-28T01:34:55.955Z,2.00
2023-04-28T01:37:24.845Z,1.70
2023-04-28T01:39:53.213Z,1.73
2023-04-28T01:42:21.554Z,1.70
2023-04-28T01:44:49.817Z,1.60
2023-04-28T01:47:18.051Z,1.80
2023-04-28T01:49:48.400Z,1.90
2023-04-28T01:52:16.693Z,1.70
2023-04-28T01:54:45.014Z,1.70
2023-04-28T01:57:14.424Z,1.50
2023-04-28T01:59:44.132Z,1.60
2023-04-28T02:02:12.526Z,1.70
2023-04-28T02:04:41.200Z,1.83
2023-04-28T02:07:09.410Z,1.60
2023-04-28T02:09:37.659Z,1.60
2023-04-28T02:12:06.091Z,1.70
2023-04-28T02:14:34.321Z,1.95
2023-04-28T02:17:04.150Z,1.75
2023-04-28T02:19:32.789Z,1.83
2023-04-28T02:22:01.121Z,1.60
2023-04-28T02:24:29.371Z,1.90
2023-04-28T02:26:58.183Z,1.70
2023-04-28T02:29:28.715Z,1.70
2023-04-28T02:31:57.402Z,1.60
2023-04-28T02:34:25.715Z,1.98
2023-04-28T02:36:53.981Z,1.90
2023-04-28T02:39:27.641Z,2.03
2023-04-28T02:41:55.927Z,1.60
2023-04-28T02:44:24.179Z,1.65
2023-04-28T02:46:52.485Z,1.80
2023-04-28T02:49:20.699Z,1.73
2023-04-28T02:51:48.931Z,1.67
2023-04-28T02:54:17.389Z,1.50
2023-04-28T02:56:46.082Z,2.10
2023-04-28T02:59:14.359Z,1.63
2023-04-28T03:01:42.747Z,1.63
2023-04-28T03:04:11.237Z,1.90
2023-04-28T03:06:39.583Z,2.13
2023-04-28T03:09:07.857Z,1.63
2023-04-28T03:11:36.241Z,1.90
2023-04-28T03:14:04.483Z,1.63
2023-04-28T03:16:33.187Z,1.98
2023-04-28T03:19:01.664Z,2.17
2023-04-28T03:21:29.871Z,2.00
2023-04-28T03:23:58.050Z,1.70
2023-04-28T03:26:26.299Z,2.45
2023-04-28T03:28:54.553Z,2.00
2023-04-28T03:31:22.822Z,1.80
2023-04-28T03:33:51.067Z,1.80
2023-04-28T03:36:19.298Z,1.83
2023-04-28T03:38:47.957Z,2.13
2023-04-28T03:41:16.192Z,2.17
2023-04-28T03:43:44.355Z,2.30
2023-04-28T03:46:12.663Z,2.20
2023-04-28T03:48:40.980Z,2.47
2023-04-28T03:51:09.204Z,2.00
2023-04-28T03:53:37.414Z,2.28
2023-04-28T03:56:05.861Z,2.42
2023-04-28T03:58:34.092Z,2.08
2023-04-28T04:01:02.576Z,2.42
2023-04-28T04:03:31.272Z,2.03
2023-04-28T04:06:00.217Z,2.60
2023-04-28T04:08:28.946Z,2.45
2023-04-28T04:10:57.220Z,2.10
2023-04-28T04:13:25.464Z,2.40
2023-04-28T04:15:53.881Z,2.13
2023-04-28T04:18:22.200Z,2.17
2023-04-28T04:20:51.353Z,2.40
2023-04-28T04:23:19.556Z,2.22
2023-04-28T04:25:48.193Z,2.30
2023-04-28T04:28:17.073Z,2.15
2023-04-28T04:30:46.126Z,2.35
2023-04-28T04:33:14.344Z,2.00
2023-04-28T04:35:42.681Z,2.15
2023-04-28T04:38:11.342Z,2.20
2023-04-28T04:40:39.533Z,2.25
2023-04-28T04:43:07.734Z,2.55
2023-04-28T04:45:36.040Z,2.20
2023-04-28T04:48:04.652Z,2.13
2023-04-28T04:50:32.870Z,2.15
2023-04-28T04:53:01.087Z,2.60
2023-04-28T04:55:29.479Z,2.20
2023-04-28T04:57:57.730Z,2.50
2023-04-28T05:00:26.005Z,3.00
2023-04-28T05:02:54.542Z,2.50
2023-04-28T05:05:23.199Z,2.63
2023-04-28T05:07:52.146Z,2.40
2023-04-28T05:10:20.433Z,2.50
2023-04-28T05:12:49.286Z,2.88
2023-04-28T05:15:17.763Z,2.78
2023-04-28T05:17:46.337Z,2.95
2023-04-28T05:20:14.661Z,2.70
2023-04-28T05:22:42.857Z,2.67
2023-04-28T05:25:11.269Z,2.45
2023-04-28T05:27:40.500Z,2.90
2023-04-28T05:30:12.076Z,2.33
2023-04-28T05:32:40.303Z,2.85
2023-04-28T05:35:08.883Z,2.60
2023-04-28T05:37:38.614Z,2.42
2023-04-28T05:40:08.763Z,2.33
2023-04-28T05:42:37.269Z,3.00
2023-04-28T05:45:07.702Z,2.42
2023-04-28T05:47:36.210Z,2.83
2023-04-28T05:50:04.576Z,2.90
2023-04-28T05:52:32.791Z,3.35
2023-04-28T05:55:01.000Z,3.53
2023-04-28T05:57:32.034Z,5.20
2023-04-28T06:00:04.937Z,2.40
2023-04-28T06:02:33.341Z,3.00
2023-04-28T06:05:01.938Z,2.78
2023-04-28T06:07:30.425Z,2.70
2023-04-28T06:09:58.613Z,3.20
2023-04-28T06:12:27.161Z,2.20
2023-04-28T06:14:56.293Z,2.50
2023-04-28T06:17:25.032Z,2.67
2023-04-28T06:19:55.289Z,2.22
2023-04-28T06:22:23.471Z,2.17
2023-04-28T06:24:51.639Z,3.05
2023-04-28T06:27:20.032Z,2.50
2023-04-28T06:29:48.470Z,2.67
2023-04-28T06:32:16.713Z,2.90
2023-04-28T06:34:44.960Z,2.72
2023-04-28T06:37:13.372Z,2.80
2023-04-28T06:39:41.672Z,2.85
2023-04-28T06:42:09.879Z,2.90
2023-04-28T06:44:38.075Z,2.90
2023-04-28T06:47:06.624Z,3.10
2023-04-28T06:49:34.909Z,2.55
2023-04-28T06:52:03.123Z,3.47
2023-04-28T06:54:31.966Z,2.95
2023-04-28T06:57:00.323Z,2.80
2023-04-28T06:59:28.704Z,2.85
2023-04-28T07:01:57.884Z,2.38
2023-04-28T07:04:26.295Z,2.70
2023-04-28T07:06:54.847Z,2.90
2023-04-28T07:11:51.570Z,3.10
2023-04-28T07:14:19.928Z,2.88
2023-04-28T07:16:48.773Z,2.45
2023-04-28T07:19:17.224Z,2.55
2023-04-28T07:21:46.204Z,2.80
2023-04-28T07:24:14.559Z,2.92
2023-04-28T07:26:42.879Z,2.95
2023-04-28T07:29:14.275Z,2.42
2023-04-28T07:31:42.598Z,3.15
2023-04-28T07:34:10.839Z,2.80
2023-04-28T07:36:39.038Z,2.88
2023-04-28T07:39:07.869Z,2.60
2023-04-28T07:41:39.755Z,2.83
2023-04-28T07:44:09.093Z,2.58
2023-04-28T07:46:37.777Z,2.95
2023-04-28T07:49:06.238Z,3.25
2023-04-28T07:51:34.676Z,3.63
2023-04-28T07:54:02.911Z,2.83
2023-04-28T07:56:31.875Z,3.50
2023-04-28T07:59:00.107Z,3.67
2023-04-28T08:01:28.399Z,2.92
2023-04-28T08:03:56.798Z,3.05
2023-04-28T08:06:25.296Z,2.83
2023-04-28T08:08:53.547Z,2.92
2023-04-28T08:11:23.240Z,2.80
2023-04-28T08:13:51.430Z,2.88
2023-04-28T08:16:20.482Z,2.92
2023-04-28T08:18:49.232Z,3.35
2023-04-28T08:21:17.536Z,3.55
2023-04-28T08:23:45.759Z,2.88
2023-04-28T08:26:14.246Z,3.10
2023-04-28T08:28:42.490Z,2.97
2023-04-28T08:31:10.802Z,3.28
2023-04-28T08:33:39.890Z,3.22
2023-04-28T08:36:08.781Z,3.00
2023-04-28T08:38:36.977Z,2.92
2023-04-28T08:41:06.131Z,3.03
2023-04-28T08:43:36.944Z,2.75
2023-04-28T08:46:08.963Z,2.83
2023-04-28T08:48:42.495Z,3.10
2023-04-28T08:51:15.108Z,2.85
2023-04-28T08:54:11.715Z,2.83
2023-04-28T08:56:38.505Z,2.03
2023-04-28T08:59:06.709Z,2.40
2023-04-28T09:01:35.448Z,2.00
2023-04-28T09:04:04.628Z,1.92
2023-04-28T09:06:38.259Z,1.98
2023-04-28T09:09:34.228Z,2.20
2023-04-28T09:12:05.431Z,2.13
2023-04-28T09:14:36.125Z,1.90
2023-04-28T09:17:10.438Z,2.10
2023-04-28T09:19:40.245Z,2.00
2023-04-28T09:22:24.864Z,1.98
2023-04-28T09:24:55.973Z,1.90
2023-04-28T09:27:30.298Z,1.95
2023-04-28T09:29:58.513Z,2.38
2023-04-28T09:32:28.809Z,2.20
2023-04-28T09:35:00.501Z,2.35
2023-04-28T09:37:32.544Z,2.03
2023-04-28T09:40:08.138Z,2.10
2023-04-28T09:42:40.734Z,2.00
2023-04-28T09:45:10.941Z,2.13
2023-04-28T09:47:41.825Z,2.00
2023-04-28T09:50:13.625Z,1.85
2023-04-28T09:52:47.037Z,2.25
2023-04-28T09:55:16.260Z,2.30
2023-04-28T09:57:50.060Z,1.90
2023-04-28T10:00:19.628Z,2.42
2023-04-28T10:02:50.804Z,2.08
2023-04-28T10:05:19.448Z,2.05
2023-04-28T10:07:48.292Z,2.20
2023-04-28T10:10:17.175Z,2.30
2023-04-28T10:12:45.916Z,2.03
2023-04-28T10:15:15.041Z,2.10
2023-04-28T10:17:43.304Z,2.30
2023-04-28T10:20:12.779Z,2.45
2023-04-28T10:22:53.385Z,2.20
2023-04-28T10:25:36.985Z,2.50
2023-04-28T10:28:09.716Z,2.10
2023-04-28T10:30:38.901Z,2.15
2023-04-28T10:33:16.287Z,2.47
2023-04-28T10:35:48.653Z,2.03
2023-04-28T10:38:18.056Z,2.20
2023-04-28T10:40:48.485Z,2.30
2023-04-28T10:43:36.022Z,1.90
2023-04-28T10:46:08.438Z,2.10
2023-04-28T10:48:40.755Z,2.25
2023-04-28T10:51:10.414Z,2.15
2023-04-28T10:53:49.132Z,2.38
2023-04-28T10:56:27.843Z,2.22
2023-04-28T10:58:57.856Z,2.20
2023-04-28T11:01:27.911Z,2.30
2023-04-28T11:04:16.833Z,2.28
2023-04-28T11:06:47.834Z,2.00
2023-04-28T11:09:16.018Z,2.10
2023-04-28T11:11:59.073Z,2.00
2023-04-28T11:14:27.214Z,1.90
2023-04-28T11:17:03.776Z,2.08
2023-04-28T11:19:40.029Z,2.00
2023-04-28T11:22:19.659Z,2.10
2023-04-28T11:25:01.853Z,2.45
2023-04-28T11:27:35.319Z,2.42
2023-04-28T11:30:03.679Z,2.58
2023-04-28T11:32:36.674Z,2.35
2023-04-28T11:35:10.561Z,2.45
2023-04-28T11:37:39.894Z,2.38
2023-04-28T11:40:15.099Z,2.17
2023-04-28T11:42:50.212Z,2.22
2023-04-28T11:45:18.563Z,2.05
2023-04-28T11:47:47.167Z,2.67
2023-04-28T11:50:16.633Z,2.50
2023-04-28T11:52:53.625Z,2.13
2023-04-28T11:55:22.564Z,2.30
2023-04-28T11:57:51.014Z,2.40
2023-04-28T12:00:22.754Z,2.50
2023-04-28T12:02:51.725Z,2.80
2023-04-28T12:05:22.962Z,2.40
2023-04-28T12:07:51.277Z,2.30
2023-04-28T12:10:20.637Z,2.78
2023-04-28T12:12:52.820Z,2.17
2023-04-28T12:15:22.879Z,2.33
2023-04-28T12:17:51.907Z,2.70
2023-04-28T12:20:39.224Z,2.35
2023-04-28T12:23:08.851Z,2.30
2023-04-28T12:25:45.749Z,2.38
2023-04-28T12:28:14.264Z,2.28
2023-04-28T12:30:45.352Z,2.53
2023-04-28T12:33:28.128Z,2.35
2023-04-28T12:35:58.301Z,2.40
2023-04-28T12:38:28.005Z,2.60
2023-04-28T12:40:56.575Z,2.30
2023-04-28T12:43:25.034Z,2.90
2023-04-28T12:45:57.323Z,2.38
2023-04-28T12:48:26.003Z,2.60
2023-04-28T12:50:54.305Z,2.55
2023-04-28T12:53:22.556Z,2.40
2023-04-28T12:55:50.808Z,2.33
2023-04-28T12:58:19.243Z,3.10
2023-04-28T13:00:47.865Z,2.90
2023-04-28T13:03:16.651Z,3.03
2023-04-28T13:05:45.164Z,2.78
2023-04-28T13:08:14.838Z,3.03
2023-04-28T13:10:43.516Z,2.65
2023-04-28T13:13:11.835Z,2.80
2023-04-28T13:15:40.262Z,2.80
2023-04-28T13:18:08.905Z,2.50
2023-04-28T13:20:37.089Z,2.60
2023-04-28T13:23:05.277Z,2.58
2023-04-28T13:25:33.512Z,2.83
2023-04-28T13:28:02.566Z,3.00
2023-04-28T13:30:30.760Z,3.30
2023-04-28T13:32:59.366Z,3.10
2023-04-28T13:35:28.074Z,3.40
2023-04-28T13:38:02.868Z,2.97
2023-04-28T13:40:31.413Z,3.20
2023-04-28T13:42:59.650Z,3.00
2023-04-28T13:45:28.020Z,2.45
2023-04-28T13:47:56.546Z,2.75
2023-04-28T13:50:24.823Z,3.15
2023-04-28T13:52:53.618Z,3.10
2023-04-28T13:55:28.397Z,3.47
2023-04-28T13:57:57.447Z,2.72
2023-04-28T14:00:25.679Z,2.70
2023-04-28T14:02:54.117Z,2.83
2023-04-28T14:05:23.178Z,3.00
2023-04-28T14:07:51.691Z,3.60
2023-04-28T14:10:20.001Z,3.20
2023-04-28T14:12:48.828Z,3.60
2023-04-28T14:15:18.881Z,3.40
2023-04-28T14:17:47.412Z,3.25
2023-04-28T14:20:15.639Z,3.60
2023-04-28T14:22:44.088Z,3.55
2023-04-28T14:25:12.373Z,4.03
2023-04-28T14:27:40.808Z,3.20
2023-04-28T14:30:09.809Z,3.25
2023-04-28T14:32:40.991Z,3.25
2023-04-28T14:35:10.377Z,3.83
2023-04-28T14:37:38.760Z,3.25
2023-04-28T14:40:08.038Z,3.28
2023-04-28T14:42:38.097Z,3.60
2023-04-28T14:45:11.552Z,3.67
2023-04-28T14:47:41.209Z,3.08
2023-04-28T14:50:10.949Z,3.20
2023-04-28T14:52:40.246Z,3.13
2023-04-28T14:55:08.841Z,3.70
2023-04-28T14:57:38.546Z,2.97
2023-04-28T15:00:08.808Z,3.42
2023-04-28T15:02:38.005Z,3.70
2023-04-28T15:05:06.937Z,3.58
2023-04-28T15:07:35.436Z,3.22
2023-04-28T15:10:03.712Z,3.30
2023-04-28T15:12:32.904Z,2.83
2023-04-28T15:15:01.347Z,3.13
2023-04-28T15:17:29.625Z,2.75
2023-04-28T15:19:58.130Z,2.72
2023-04-28T15:22:26.692Z,2.80
2023-04-28T15:24:56.234Z,2.70
2023-04-28T15:27:24.698Z,2.63
2023-04-28T15:29:53.122Z,2.75
2023-04-28T15:32:24.381Z,2.60
2023-04-28T15:34:52.866Z,2.75
2023-04-28T15:37:42.381Z,3.03
2023-04-28T15:40:13.106Z,2.97
2023-04-28T15:42:49.658Z,3.15
2023-04-28T15:45:19.300Z,2.80
2023-04-28T15:47:51.932Z,3.10
2023-04-28T15:50:21.346Z,3.00
2023-04-28T15:52:50.855Z,2.40
2023-04-28T15:55:20.781Z,2.80
2023-04-28T15:57:49.963Z,3.08
2023-04-28T16:00:18.436Z,2.70
2023-04-28T16:02:47.830Z,3.17
2023-04-28T16:05:16.352Z,2.75
2023-04-28T16:07:45.315Z,2.78
2023-04-28T16:10:15.501Z,2.97
2023-04-28T16:12:44.313Z,2.88
2023-04-28T16:15:13.680Z,2.88
2023-04-28T16:17:42.602Z,2.95
2023-04-28T16:20:12.497Z,3.15
2023-04-28T16:22:42.453Z,3.20
2023-04-28T16:25:11.369Z,2.92
2023-04-28T16:27:41.564Z,3.15
2023-04-28T16:30:10.864Z,3.10
2023-04-28T16:32:39.228Z,3.10
2023-04-28T16:35:13.050Z,2.70
2023-04-28T16:37:43.860Z,2.30
2023-04-28T16:40:13.336Z,2.80
2023-04-28T16:42:42.939Z,2.50
2023-04-28T16:45:12.240Z,2.97
2023-04-28T16:47:45.294Z,2.58
2023-04-28T16:50:17.392Z,2.83
2023-04-28T16:52:46.211Z,2.58
2023-04-28T16:55:14.488Z,2.60
2023-04-28T16:57:42.789Z,2.47
2023-04-28T17:00:11.906Z,2.33
2023-04-28T17:02:40.259Z,2.63
2023-04-28T17:05:09.114Z,3.05
2023-04-28T17:07:37.395Z,2.17
2023-04-28T17:10:05.987Z,2.50
2023-04-28T17:12:34.267Z,2.63
2023-04-28T17:15:02.716Z,2.58
2023-04-28T17:17:30.991Z,3.80
2023-04-28T17:20:00.717Z,3.40
2023-04-28T17:22:31.518Z,3.60
2023-04-28T17:25:00.157Z,3.70
2023-04-28T17:27:28.421Z,2.97
2023-04-28T17:29:56.783Z,3.00
2023-04-28T17:32:25.144Z,3.25
2023-04-28T17:34:53.998Z,2.95
2023-04-28T17:37:22.369Z,3.08
2023-04-28T17:39:53.481Z,3.33
2023-04-28T17:42:21.909Z,3.80
2023-04-28T17:44:50.338Z,3.38
2023-04-28T17:47:18.714Z,3.70
2023-04-28T17:49:47.207Z,3.47
2023-04-28T17:52:16.336Z,3.70
2023-04-28T17:54:44.598Z,4.32
2023-04-28T17:57:13.934Z,4.35
2023-04-28T17:59:43.436Z,3.58
2023-04-28T18:02:12.553Z,3.40
2023-04-28T18:04:41.114Z,3.80
2023-04-28T18:07:09.385Z,4.00
2023-04-28T18:09:37.802Z,4.20
2023-04-28T18:12:06.429Z,3.45
2023-04-28T18:14:34.824Z,3.70
2023-04-28T18:17:03.042Z,3.70
2023-04-28T18:19:31.402Z,4.20
2023-04-28T18:21:59.758Z,3.78
2023-04-28T18:24:28.226Z,4.43
2023-04-28T18:26:56.494Z,3.40
2023-04-28T18:29:24.745Z,3.60
2023-04-28T18:31:53.398Z,3.17
2023-04-28T18:34:22.104Z,3.40
2023-04-28T18:36:50.840Z,3.72
2023-04-28T18:39:19.326Z,3.15
2023-04-28T18:41:47.870Z,3.45
2023-04-28T18:44:16.091Z,3.50
2023-04-28T18:46:44.327Z,3.20
2023-04-28T18:49:14.460Z,3.15
2023-04-28T18:51:42.862Z,3.67
2023-04-28T18:54:11.229Z,4.32
2023-04-28T18:56:39.498Z,3.08
2023-04-28T18:59:08.853Z,3.22
2023-04-28T19:01:37.744Z,3.65
2023-04-28T19:04:06.389Z,3.60
2023-04-28T19:06:34.849Z,3.13
2023-04-28T19:09:03.507Z,3.20
2023-04-28T19:11:31.808Z,3.17
2023-04-28T19:14:00.024Z,3.58
2023-04-28T19:16:28.284Z,3.22
2023-04-28T19:18:56.704Z,3.58
2023-04-28T19:21:25.653Z,3.45
2023-04-28T19:23:54.496Z,3.28
2023-04-28T19:26:22.783Z,2.90
2023-04-28T19:28:51.111Z,3.03
2023-04-28T19:31:19.401Z,3.72
2023-04-28T19:33:48.082Z,3.88
2023-04-28T19:36:16.309Z,3.72
2023-04-28T19:38:44.566Z,3.28
2023-04-28T19:41:13.506Z,2.88
2023-04-28T19:43:41.920Z,3.25
2023-04-28T19:46:10.181Z,3.47
2023-04-28T19:48:38.403Z,3.35
2023-04-28T19:51:06.822Z,3.25
2023-04-28T19:53:36.334Z,3.33
2023-04-28T19:56:04.809Z,3.03
2023-04-28T19:58:34.324Z,3.53
2023-04-28T20:01:02.624Z,3.05
2023-04-28T20:03:31.053Z,2.95
2023-04-28T20:06:00.083Z,3.05
2023-04-28T20:08:29.224Z,3.28
2023-04-28T20:10:57.502Z,3.13
2023-04-28T20:13:27.908Z,2.70
2023-04-28T20:15:56.695Z,2.90
2023-04-28T20:18:25.000Z,2.63
2023-04-28T20:20:56.664Z,2.85
2023-04-28T20:23:25.037Z,2.53
2023-04-28T20:25:53.476Z,2.92
2023-04-28T20:28:21.775Z,2.70
2023-04-28T20:30:50.026Z,2.88
2023-04-28T20:33:18.644Z,2.80
2023-04-28T20:35:47.126Z,2.65
2023-04-28T20:38:15.445Z,2.60
2023-04-28T20:40:45.050Z,2.53
2023-04-28T20:43:13.271Z,2.80
2023-04-28T20:45:42.800Z,3.10
2023-04-28T20:48:11.680Z,3.20
2023-04-28T20:50:41.795Z,2.40
2023-04-28T20:53:10.534Z,2.75
2023-04-28T20:55:38.806Z,2.53
2023-04-28T20:58:08.384Z,2.58
2023-04-28T21:00:40.834Z,2.92
2023-04-28T21:03:16.121Z,2.78
2023-04-28T21:05:47.575Z,2.65
2023-04-28T21:08:15.965Z,2.88
2023-04-28T21:10:44.318Z,2.35
2023-04-28T21:13:13.866Z,2.67
2023-04-28T21:15:42.401Z,2.78
2023-04-28T21:18:10.641Z,2.72
2023-04-28T21:20:38.930Z,2.67
2023-04-28T21:23:08.348Z,2.50
2023-04-28T21:25:37.544Z,2.33
2023-04-28T21:28:06.089Z,2.90
2023-04-28T21:30:34.295Z,2.45
2023-04-28T21:33:02.785Z,2.30
2023-04-28T21:35:31.138Z,2.45
2023-04-28T21:37:59.466Z,2.50
2023-04-28T21:40:27.810Z,2.75
2023-04-28T21:42:56.427Z,2.30
2023-04-28T21:45:24.813Z,2.10
2023-04-28T21:47:53.094Z,2.22
2023-04-28T21:50:21.354Z,2.22
2023-04-28T21:52:49.558Z,2.30
2023-04-28T21:55:17.893Z,2.25
2023-04-28T21:57:46.611Z,1.95
2023-04-28T22:00:15.477Z,1.75
2023-04-28T22:02:44.263Z,2.10
2023-04-28T22:05:12.748Z,2.05
2023-04-28T22:07:41.027Z,2.28
2023-04-28T22:10:10.618Z,2.40
2023-04-28T22:12:39.467Z,2.15
2023-04-28T22:15:08.392Z,2.10
2023-04-28T22:17:36.660Z,2.08
2023-04-28T22:20:06.130Z,2.10
2023-04-28T22:22:34.449Z,2.35
2023-04-28T22:25:02.859Z,2.28
2023-04-28T22:27:31.483Z,2.33
2023-04-28T22:29:59.756Z,2.00
2023-04-28T22:32:28.467Z,2.35
2023-04-28T22:34:56.841Z,2.00
2023-04-28T22:37:25.060Z,2.20
2023-04-28T22:39:53.527Z,1.98
2023-04-28T22:42:21.982Z,1.90
2023-04-28T22:44:50.261Z,1.60
2023-04-28T22:47:18.870Z,1.73
2023-04-28T22:49:47.460Z,1.70
2023-04-28T22:52:15.703Z,1.70
2023-04-28T22:54:43.979Z,1.70
2023-04-28T22:57:12.461Z,1.85
2023-04-28T22:59:40.668Z,1.70
2023-04-28T23:02:09.714Z,1.60
2023-04-28T23:04:38.104Z,1.60
2023-04-28T23:07:08.141Z,1.73
2023-04-28T23:09:38.069Z,1.73
2023-04-28T23:12:06.873Z,1.80
2023-04-28T23:14:35.329Z,1.65
2023-04-28T23:17:03.664Z,1.80
2023-04-28T23:19:32.577Z,1.90
2023-04-28T23:22:01.224Z,1.60
2023-04-28T23:24:29.923Z,1.75
2023-04-28T23:26:58.289Z,2.00
2023-04-28T23:29:27.031Z,1.55
2023-04-28T23:31:55.695Z,1.63
2023-04-28T23:34:24.328Z,1.65
2023-04-28T23:36:52.708Z,1.45
2023-04-28T23:39:21.028Z,1.23
2023-04-28T23:41:49.362Z,1.40
2023-04-28T23:44:18.112Z,1.33
2023-04-28T23:46:46.766Z,1.23
2023-04-28T23:49:14.992Z,1.33
2023-04-28T23:51:43.817Z,1.23
2023-04-28T23:54:12.489Z,1.40
2023-04-28T23:56:40.757Z,1.55
2023-04-28T23:59:09.252Z,1.30
